Time;durP1;ratioP1;P1;durP2;ratioP2;P2;SDS_P1;SDS_P2;PMS_P1;PMS_P2;Temp;Humidity;BMP_temperature;BMP_pressure;BME280_temperature;BME280_humidity;BME280_pressure;Samples;Min_cycle;Max_cycle;Signal;HPM_P1;HPM_P2
2023/04/02 00:01:00;;;;;;;;;1.00;1.00;;;;;19.94;48.09;100206.36;110216;1264;18396;-77
2023/04/02 00:03:35;;;;;;;;;1.00;1.00;;;;;19.94;47.85;100207.48;110227;1256;18594;-77
2023/04/02 00:06:03;;;;;;;;;1.67;1.00;;;;;19.94;47.96;100208.91;110193;1263;19322;-77
2023/04/02 00:08:30;;;;;;;;;1.00;1.00;;;;;19.94;47.82;100210.20;110191;1263;22873;-77
2023/04/02 00:10:58;;;;;;;;;1.00;1.00;;;;;19.94;48.03;100210.50;110172;1263;19483;-77
2023/04/02 00:13:25;;;;;;;;;1.00;1.00;;;;;19.94;47.99;100211.71;110195;1247;20596;-77
2023/04/02 00:15:53;;;;;;;;;1.00;1.00;;;;;19.94;48.04;100209.91;110195;1263;18426;-77
2023/04/02 00:18:20;;;;;;;;;1.00;1.00;;;;;19.94;47.89;100214.94;110197;1263;18636;-77
2023/04/02 00:20:47;;;;;;;;;1.00;1.00;;;;;19.94;48.01;100217.28;110156;1263;22021;-77
2023/04/02 00:23:15;;;;;;;;;1.00;1.00;;;;;19.93;47.87;100218.61;110152;1263;21085;-77
2023/04/02 00:25:44;;;;;;;;;1.00;1.00;;;;;19.93;47.83;100221.16;110203;1263;18631;-77
2023/04/02 00:28:11;;;;;;;;;1.00;1.00;;;;;19.93;47.87;100224.59;110156;1247;22345;-77
2023/04/02 00:30:38;;;;;;;;;3.00;1.00;;;;;19.95;47.83;100225.70;110151;1251;19601;-77
2023/04/02 00:33:06;;;;;;;;;1.00;1.00;;;;;19.94;47.94;100224.77;110198;1263;18631;-77
2023/04/02 00:35:33;;;;;;;;;1.00;1.00;;;;;19.93;47.88;100228.64;110194;1263;19350;-77
2023/04/02 00:38:00;;;;;;;;;1.00;1.00;;;;;19.93;47.95;100230.74;110197;1263;22088;-77
2023/04/02 00:40:28;;;;;;;;;1.00;1.00;;;;;19.94;48.04;100234.81;110230;1257;19746;-76
2023/04/02 00:42:55;;;;;;;;;1.00;1.00;;;;;19.94;47.91;100235.27;110226;1264;19454;-77
2023/04/02 00:45:23;;;;;;;;;1.00;1.00;;;;;19.93;47.85;100235.34;110222;1247;21411;-77
2023/04/02 00:47:50;;;;;;;;;1.00;1.00;;;;;19.92;47.88;100241.20;110168;1247;20330;-77
2023/04/02 00:50:18;;;;;;;;;1.00;1.00;;;;;19.94;47.80;100242.51;110173;1263;22324;-77
2023/04/02 00:52:45;;;;;;;;;1.00;1.00;;;;;19.93;47.73;100246.73;110189;1247;18346;-77
2023/04/02 00:55:13;;;;;;;;;1.00;1.00;;;;;19.93;47.79;100248.73;110172;1247;20058;-77
2023/04/02 00:57:41;;;;;;;;;1.00;1.00;;;;;19.93;47.78;100252.96;110161;1256;20918;-77
2023/04/02 01:00:08;;;;;;;;;1.00;1.00;;;;;19.93;47.74;100257.44;110202;1247;19673;-76
2023/04/02 01:02:39;;;;;;;;;1.00;1.00;;;;;19.94;47.94;100259.75;110181;1263;18928;-76
2023/04/02 01:05:10;;;;;;;;;1.00;1.00;;;;;19.93;47.72;100261.09;110164;1247;21011;-77
2023/04/02 01:07:37;;;;;;;;;1.00;1.00;;;;;19.93;47.82;100263.92;110200;1247;19709;-77
2023/04/02 01:10:04;;;;;;;;;3.00;3.00;;;;;19.92;47.94;100267.14;110146;1263;18627;-77
2023/04/02 01:12:32;;;;;;;;;1.00;1.00;;;;;19.93;48.03;100275.77;110159;1263;19729;-76
2023/04/02 01:14:59;;;;;;;;;1.00;1.00;;;;;19.92;48.00;100271.73;110183;1263;19502;-78
2023/04/02 01:17:27;;;;;;;;;1.00;1.00;;;;;19.93;47.86;100275.63;110190;1263;19889;-76
2023/04/02 01:19:57;;;;;;;;;1.00;1.00;;;;;19.92;47.83;100277.64;110221;1247;20716;-76
2023/04/02 01:22:24;;;;;;;;;1.00;1.00;;;;;19.93;47.67;100275.97;110176;1247;19535;-77
2023/04/02 01:24:51;;;;;;;;;1.00;1.00;;;;;19.92;47.86;100281.28;110159;1263;22765;-77
2023/04/02 01:27:19;;;;;;;;;1.00;1.00;;;;;19.92;47.79;100276.83;110190;1264;19257;-77
2023/04/02 01:29:47;;;;;;;;;1.00;1.00;;;;;19.93;47.66;100281.62;110160;1251;19691;-77
2023/04/02 01:32:14;;;;;;;;;1.00;1.00;;;;;19.93;47.65;100287.39;110187;1249;22424;-77
2023/04/02 01:34:43;;;;;;;;;1.00;1.00;;;;;19.92;47.87;100289.27;110178;1263;19484;-77
2023/04/02 01:37:11;;;;;;;;;1.00;1.00;;;;;19.92;47.62;100289.13;110178;1263;18373;-77
2023/04/02 01:39:38;;;;;;;;;1.00;1.00;;;;;19.93;47.71;100295.92;110178;1263;18640;-76
2023/04/02 01:42:06;;;;;;;;;1.00;1.00;;;;;19.93;47.90;100293.58;110170;1247;20885;-76
2023/04/02 01:44:34;;;;;;;;;1.00;1.00;;;;;19.92;47.91;100294.54;110164;1247;19598;-76
2023/04/02 01:47:02;;;;;;;;;1.00;1.00;;;;;19.93;47.84;100298.85;110155;1247;20063;-76
2023/04/02 01:49:30;;;;;;;;;1.00;1.00;;;;;19.93;47.72;100300.10;110172;1257;22155;-76
2023/04/02 01:51:57;;;;;;;;;1.00;1.00;;;;;19.93;47.86;100302.45;110150;1257;18431;-76
2023/04/02 01:54:24;;;;;;;;;1.00;1.00;;;;;19.93;47.76;100304.42;110161;1257;18484;-76
2023/04/02 01:56:52;;;;;;;;;1.00;1.00;;;;;19.92;47.75;100306.17;110151;1248;19313;-76
2023/04/02 01:59:21;;;;;;;;;1.00;1.00;;;;;19.92;47.64;100311.23;110158;1264;20159;-76
2023/04/02 02:01:50;;;;;;;;;1.00;1.00;;;;;19.92;47.67;100311.23;110190;1247;20108;-77
2023/04/02 02:04:18;;;;;;;;;1.00;1.00;;;;;19.92;47.75;100312.73;110149;1248;21544;-77
2023/04/02 02:06:45;;;;;;;;;1.00;1.00;;;;;19.93;47.76;100315.17;110197;1250;21096;-77
2023/04/02 02:09:13;;;;;;;;;1.00;1.00;;;;;19.92;47.66;100315.44;110194;1263;18607;-77
2023/04/02 02:11:40;;;;;;;;;1.00;1.00;;;;;19.92;47.70;100313.06;110178;1263;21363;-77
2023/04/02 02:14:10;;;;;;;;;1.00;1.00;;;;;19.93;47.59;100319.88;110196;1251;19552;-77
2023/04/02 02:16:40;;;;;;;;;1.00;1.00;;;;;19.93;47.79;100317.89;110209;1257;18579;-77
2023/04/02 02:19:07;;;;;;;;;3.00;1.00;;;;;19.92;47.73;100325.06;110236;1258;19347;-77
2023/04/02 02:21:35;;;;;;;;;1.00;1.00;;;;;19.91;47.82;100322.73;110216;1264;22821;-78
2023/04/02 02:24:03;;;;;;;;;1.00;1.00;;;;;19.91;47.66;100322.17;110148;1263;22391;-77
2023/04/02 02:26:32;;;;;;;;;1.00;1.00;;;;;19.92;47.70;100332.69;110170;1257;22148;-77
2023/04/02 02:29:00;;;;;;;;;1.00;1.00;;;;;19.92;47.95;100330.84;110188;1263;22689;-77
2023/04/02 02:31:27;;;;;;;;;1.00;1.00;;;;;19.91;47.62;100331.45;110197;1263;22660;-79
2023/04/02 02:33:54;;;;;;;;;1.00;1.00;;;;;19.90;47.68;100333.91;110256;1247;20745;-77
2023/04/02 02:36:22;;;;;;;;;1.00;1.00;;;;;19.91;47.76;100335.27;110232;1263;18388;-77
2023/04/02 02:38:49;;;;;;;;;1.00;1.00;;;;;19.92;47.62;100336.11;110186;1263;18571;-77
2023/04/02 02:41:17;;;;;;;;;1.00;1.00;;;;;19.91;47.66;100336.96;110172;1263;19463;-77
2023/04/02 02:43:44;;;;;;;;;1.00;1.00;;;;;19.91;47.80;100340.23;110157;1263;18355;-76
2023/04/02 02:46:11;;;;;;;;;1.00;1.00;;;;;19.92;47.65;100339.95;110199;1257;18587;-78
2023/04/02 02:48:39;;;;;;;;;1.00;1.00;;;;;19.91;47.60;100344.71;110200;1247;20864;-79
2023/04/02 02:51:06;;;;;;;;;1.00;1.00;;;;;19.91;47.70;100350.16;110235;1251;19554;-77
2023/04/02 02:53:34;;;;;;;;;1.00;1.00;;;;;19.91;47.73;100350.70;110268;1263;18601;-78
2023/04/02 02:56:01;;;;;;;;;1.00;1.00;;;;;19.91;47.50;100358.29;110306;1247;20775;-78
2023/04/02 02:58:30;;;;;;;;;3.00;1.00;;;;;19.90;47.53;100359.68;110226;1263;18448;-78
2023/04/02 03:00:58;;;;;;;;;1.00;1.00;;;;;19.92;47.64;100362.61;110197;1263;18641;-79
2023/04/02 03:03:26;;;;;;;;;1.00;1.00;;;;;19.91;47.64;100364.98;110177;1247;21918;-77
2023/04/02 03:05:53;;;;;;;;;1.00;1.00;;;;;19.92;47.47;100367.66;110211;1247;18340;-77
2023/04/02 03:08:20;;;;;;;;;1.00;1.00;;;;;19.92;47.70;100374.36;110218;1247;18475;-80
2023/04/02 03:10:49;;;;;;;;;1.00;1.00;;;;;19.91;47.58;100373.38;110208;1263;19370;-78
2023/04/02 03:13:18;;;;;;;;;1.00;1.00;;;;;19.91;47.74;100377.54;110175;1263;18500;-77
2023/04/02 03:15:46;;;;;;;;;1.00;1.00;;;;;19.91;47.71;100378.30;110148;1263;19343;-77
2023/04/02 03:18:13;;;;;;;;;1.00;1.00;;;;;19.91;47.63;100387.54;110234;1263;19370;-77
2023/04/02 03:20:40;;;;;;;;;1.00;1.00;;;;;19.91;47.77;100389.73;110243;1247;19660;-78
2023/04/02 03:23:08;;;;;;;;;1.00;1.00;;;;;19.91;47.58;100390.75;110223;1247;21265;-78
2023/04/02 03:25:36;;;;;;;;;1.00;1.00;;;;;19.90;47.62;100389.23;110218;1247;20814;-77
2023/04/02 03:28:04;;;;;;;;;1.00;1.00;;;;;19.90;47.53;100392.54;110201;1263;19597;-78
2023/04/02 03:30:31;;;;;;;;;1.00;1.00;;;;;19.90;47.65;100393.08;110189;1263;18642;-78
2023/04/02 03:32:58;;;;;;;;;1.00;1.00;;;;;19.91;47.65;100401.50;110322;1263;19372;-78
2023/04/02 03:35:26;;;;;;;;;1.00;1.00;;;;;19.91;47.73;100405.64;110331;1247;19673;-77
2023/04/02 03:37:53;;;;;;;;;1.00;1.00;;;;;19.90;47.48;100403.57;110228;1256;18583;-77
2023/04/02 03:40:21;;;;;;;;;1.00;1.00;;;;;19.90;47.60;100406.66;110219;1264;22738;-77
2023/04/02 03:42:48;;;;;;;;;1.00;1.00;;;;;19.90;47.63;100408.67;110205;1263;18391;-77
2023/04/02 03:45:15;;;;;;;;;1.00;1.00;;;;;19.89;47.71;100411.64;110165;1248;20172;-78
2023/04/02 03:47:43;;;;;;;;;1.00;1.00;;;;;19.90;47.75;100413.57;110171;1263;21917;-78
2023/04/02 03:50:10;;;;;;;;;1.00;1.00;;;;;19.90;47.37;100418.44;110197;1248;19576;-76
2023/04/02 03:52:38;;;;;;;;;1.00;1.00;;;;;19.90;47.53;100421.40;110170;1263;18612;-78
2023/04/02 03:55:06;;;;;;;;;1.00;1.00;;;;;19.90;47.65;100424.66;110180;1263;19242;-78
2023/04/02 03:57:33;;;;;;;;;1.00;1.00;;;;;19.90;47.48;100428.05;110179;1251;20648;-78
2023/04/02 04:00:01;;;;;;;;;1.00;1.00;;;;;19.90;47.59;100433.16;110186;1263;19930;-77
2023/04/02 04:02:28;;;;;;;;;1.00;1.00;;;;;19.90;47.53;100435.30;110186;1263;19504;-76
2023/04/02 04:04:55;;;;;;;;;1.00;1.00;;;;;19.90;47.74;100435.84;110190;1248;18578;-77
2023/04/02 04:07:23;;;;;;;;;1.00;1.00;;;;;19.91;47.54;100440.45;110191;1257;22280;-77
2023/04/02 04:09:50;;;;;;;;;1.00;1.00;;;;;19.91;47.65;100444.85;110207;1255;19625;-77
2023/04/02 04:12:17;;;;;;;;;1.00;1.00;;;;;19.90;47.64;100448.02;110210;1263;22310;-77
2023/04/02 04:14:45;;;;;;;;;1.00;1.00;;;;;19.89;47.46;100449.17;110228;1257;18569;-77
2023/04/02 04:17:14;;;;;;;;;1.00;1.00;;;;;19.90;47.51;100451.98;110180;1256;19656;-77
2023/04/02 04:19:44;;;;;;;;;1.00;1.00;;;;;19.90;47.39;100456.69;110148;1263;18279;-77
2023/04/02 04:22:13;;;;;;;;;1.00;1.00;;;;;19.90;47.46;100459.27;110200;1263;18826;-77
2023/04/02 04:24:44;;;;;;;;;1.00;1.00;;;;;19.90;47.59;100462.40;110255;1263;19316;-77
2023/04/02 04:27:11;;;;;;;;;1.00;1.00;;;;;19.89;47.58;100466.96;110215;1263;20571;-76
2023/04/02 04:29:39;;;;;;;;;1.00;1.00;;;;;19.90;47.53;100470.86;110215;1263;18764;-76
2023/04/02 04:32:06;;;;;;;;;1.00;1.00;;;;;19.91;47.42;100475.90;110180;1257;19344;-76
2023/04/02 04:34:35;;;;;;;;;1.00;1.00;;;;;19.90;47.36;100481.61;110151;1263;18419;-76
2023/04/02 04:37:06;;;;;;;;;1.00;1.00;;;;;19.90;47.48;100484.50;110170;1263;19935;-76
2023/04/02 04:39:33;;;;;;;;;1.00;1.00;;;;;19.90;47.46;100485.76;110188;1264;22757;-76
2023/04/02 04:42:00;;;;;;;;;3.00;1.00;;;;;19.90;47.58;100495.02;110191;1247;18372;-76
2023/04/02 04:44:28;;;;;;;;;1.00;1.00;;;;;19.89;47.51;100495.08;110176;1263;18609;-76
2023/04/02 04:46:55;;;;;;;;;1.00;1.00;;;;;19.89;47.51;100499.09;110186;1251;20777;-76
2023/04/02 04:49:23;;;;;;;;;1.00;1.00;;;;;19.90;47.60;100506.93;110156;1263;18523;-75
2023/04/02 04:51:50;;;;;;;;;1.00;1.00;;;;;19.90;47.49;100509.45;110164;1257;20133;-76
2023/04/02 04:54:19;;;;;;;;;1.00;1.00;;;;;19.90;47.52;100510.02;110190;1263;19354;-76
2023/04/02 04:56:46;;;;;;;;;1.00;1.00;;;;;19.90;47.57;100513.83;110170;1263;19597;-75
2023/04/02 04:59:13;;;;;;;;;1.00;1.00;;;;;19.90;47.50;100521.87;110200;1247;22663;-77
2023/04/02 05:01:40;;;;;;;;;1.00;1.00;;;;;19.90;47.39;100522.54;110251;1263;19325;-78
2023/04/02 05:04:08;;;;;;;;;1.00;1.00;;;;;19.90;47.31;100529.11;110289;1263;19843;-76
2023/04/02 05:06:35;;;;;;;;;3.00;3.00;;;;;19.89;47.51;100526.84;110214;1263;19688;-76
2023/04/02 05:09:02;;;;;;;;;1.00;1.00;;;;;19.90;47.44;100535.09;110163;1247;19330;-75
2023/04/02 05:11:30;;;;;;;;;1.00;1.00;;;;;19.91;47.39;100541.00;110147;1263;18518;-74
2023/04/02 05:13:57;;;;;;;;;1.00;1.00;;;;;19.90;47.43;100541.20;110160;1247;18625;-74
2023/04/02 05:16:25;;;;;;;;;1.00;1.00;;;;;19.90;47.39;100548.48;110153;1257;19498;-74
2023/04/02 05:18:52;;;;;;;;;1.00;1.00;;;;;19.90;47.57;100547.64;110191;1263;18574;-76
2023/04/02 05:21:19;;;;;;;;;1.00;1.00;;;;;19.90;47.62;100556.64;110170;1247;22754;-77
2023/04/02 05:23:47;;;;;;;;;1.00;1.00;;;;;19.90;47.52;100562.59;110160;1263;19319;-77
2023/04/02 05:26:14;;;;;;;;;1.00;1.00;;;;;19.90;47.35;100565.11;110197;1263;18349;-76
2023/04/02 05:28:42;;;;;;;;;1.00;1.00;;;;;19.90;47.44;100570.95;110180;1247;20049;-75
2023/04/02 05:31:10;;;;;;;;;1.00;1.00;;;;;19.90;47.35;100572.96;110129;1256;19457;-74
2023/04/02 05:33:38;;;;;;;;;1.00;1.00;;;;;19.90;47.40;100572.59;110166;1257;18250;-74
2023/04/02 05:36:05;;;;;;;;;1.00;1.00;;;;;19.90;47.51;100577.27;110186;1247;19863;-76
2023/04/02 05:38:32;;;;;;;;;1.00;1.00;;;;;19.91;47.29;100578.84;110163;1248;19375;-75
2023/04/02 05:41:00;;;;;;;;;1.00;1.00;;;;;19.91;47.40;100586.84;110193;1251;23000;-77
2023/04/02 05:43:27;;;;;;;;;2.00;2.00;;;;;19.90;47.48;100588.16;110226;1263;18758;-77
2023/04/02 05:45:55;;;;;;;;;1.00;1.00;;;;;19.90;47.51;100593.65;110198;1263;19342;-76
2023/04/02 05:48:22;;;;;;;;;1.00;1.00;;;;;19.90;47.34;100595.83;110173;1263;18432;-76
2023/04/02 05:50:50;;;;;;;;;1.00;1.00;;;;;19.90;47.31;100597.11;110221;1263;20124;-77
2023/04/02 05:53:17;;;;;;;;;1.00;1.00;;;;;19.90;47.34;100603.60;110148;1257;22318;-76
2023/04/02 05:55:44;;;;;;;;;1.00;1.00;;;;;19.90;47.63;100603.59;110226;1256;18440;-77
2023/04/02 05:58:12;;;;;;;;;1.00;1.00;;;;;19.91;47.57;100607.91;110182;1263;21329;-77
2023/04/02 06:00:39;;;;;;;;;1.00;1.00;;;;;19.90;47.53;100610.81;110188;1263;20637;-76
2023/04/02 06:03:07;;;;;;;;;1.00;1.00;;;;;19.90;47.40;100612.30;110240;1247;19618;-76
2023/04/02 06:05:34;;;;;;;;;1.00;1.00;;;;;19.90;47.37;100616.11;110169;1263;21477;-78
2023/04/02 06:08:02;;;;;;;;;1.00;1.00;;;;;19.90;47.37;100617.44;110183;1263;19358;-76
2023/04/02 06:10:29;;;;;;;;;3.00;1.00;;;;;19.90;47.44;100624.98;110179;1263;22711;-77
2023/04/02 06:13:01;;;;;;;;;1.00;1.00;;;;;19.90;47.35;100629.41;110251;1248;20009;-77
2023/04/02 06:15:29;;;;;;;;;1.00;1.00;;;;;19.90;47.35;100636.58;110234;1263;19284;-74
2023/04/02 06:17:56;;;;;;;;;3.00;3.00;;;;;19.90;47.35;100637.36;110196;1251;20828;-74
2023/04/02 06:20:24;;;;;;;;;1.00;1.00;;;;;19.90;47.45;100642.39;110214;1263;18605;-74
2023/04/02 06:22:51;;;;;;;;;3.00;3.00;;;;;19.90;47.53;100643.10;110221;1248;20639;-76
2023/04/02 06:25:19;;;;;;;;;1.00;1.00;;;;;19.91;47.49;100645.08;110257;1264;18404;-76
2023/04/02 06:27:46;;;;;;;;;3.00;3.00;;;;;19.91;47.43;100649.05;110183;1257;18938;-76
2023/04/02 06:30:13;;;;;;;;;1.00;1.00;;;;;19.90;47.48;100650.39;110156;1248;20896;-76
2023/04/02 06:32:41;;;;;;;;;1.00;1.00;;;;;19.90;47.26;100656.00;110173;1263;19286;-76
2023/04/02 06:35:08;;;;;;;;;1.00;1.00;;;;;19.90;47.32;100656.34;110156;1263;18727;-76
2023/04/02 06:37:35;;;;;;;;;1.00;1.00;;;;;19.91;47.43;100664.63;110216;1248;21517;-76
2023/04/02 06:40:03;;;;;;;;;1.00;1.00;;;;;19.91;47.46;100666.63;110146;1250;19814;-76
2023/04/02 06:42:30;;;;;;;;;1.00;1.00;;;;;19.91;47.48;100670.98;110187;1257;18599;-75
2023/04/02 06:44:58;;;;;;;;;1.00;1.00;;;;;19.90;47.32;100674.36;110217;1250;19377;-76
2023/04/02 06:47:25;;;;;;;;;3.00;1.00;;;;;19.90;47.28;100678.88;110199;1263;18363;-75
2023/04/02 06:49:52;;;;;;;;;1.00;1.00;;;;;19.90;47.36;100683.58;110195;1263;19943;-75
2023/04/02 06:52:20;;;;;;;;;4.00;1.00;;;;;19.89;47.31;100685.48;110187;1251;20705;-75
2023/04/02 06:54:47;;;;;;;;;1.00;1.00;;;;;19.89;47.51;100687.31;110190;1263;18459;-76
2023/04/02 06:57:14;;;;;;;;;1.00;1.00;;;;;19.89;47.35;100693.43;110204;1263;18737;-76
2023/04/02 06:59:42;;;;;;;;;1.00;1.00;;;;;19.89;47.43;100696.20;110174;1264;20854;-75
2023/04/02 07:02:09;;;;;;;;;1.00;1.00;;;;;19.90;47.33;100699.92;110190;1263;19866;-75
2023/04/02 07:04:36;;;;;;;;;1.00;1.00;;;;;19.89;47.38;100704.89;110210;1263;19973;-76
2023/04/02 07:07:04;;;;;;;;;1.00;1.00;;;;;19.90;47.43;100709.17;110224;1251;19317;-76
2023/04/02 07:09:31;;;;;;;;;1.00;1.00;;;;;19.89;47.41;100709.45;110168;1251;22114;-76
2023/04/02 07:11:59;;;;;;;;;3.00;1.00;;;;;19.89;47.41;100713.77;110250;1251;19961;-75
2023/04/02 07:14:26;;;;;;;;;1.00;1.00;;;;;19.90;47.36;100717.13;110237;1248;22343;-76
2023/04/02 07:16:53;;;;;;;;;1.00;1.00;;;;;19.89;47.23;100713.80;110238;1263;18374;-76
2023/04/02 07:19:21;;;;;;;;;1.00;1.00;;;;;19.89;47.35;100718.86;110202;1263;18633;-77
2023/04/02 07:21:48;;;;;;;;;1.00;1.00;;;;;19.89;47.23;100721.25;110156;1263;19330;-76
2023/04/02 07:24:16;;;;;;;;;1.00;1.00;;;;;19.87;47.49;100721.80;110154;1264;19852;-76
2023/04/02 07:26:43;;;;;;;;;1.00;1.00;;;;;19.88;47.41;100724.28;110144;1264;18624;-76
2023/04/02 07:29:10;;;;;;;;;1.00;1.00;;;;;19.88;47.46;100725.20;110203;1264;19828;-77
2023/04/02 07:31:39;;;;;;;;;3.00;1.00;;;;;19.88;47.27;100729.86;110185;1264;18377;-77
2023/04/02 07:34:06;;;;;;;;;1.00;1.00;;;;;19.89;47.25;100731.25;110220;1264;18803;-79
2023/04/02 07:36:34;;;;;;;;;1.00;1.00;;;;;19.89;47.39;100737.98;110305;1248;20651;-76
2023/04/02 07:39:01;;;;;;;;;1.00;1.00;;;;;19.88;47.45;100741.25;110267;1264;18454;-76
2023/04/02 07:41:29;;;;;;;;;1.00;1.00;;;;;19.88;47.32;100746.92;110191;1264;18606;-77
2023/04/02 07:43:56;;;;;;;;;1.00;1.00;;;;;19.87;47.30;100749.54;110184;1264;22293;-78
2023/04/02 07:46:24;;;;;;;;;5.33;5.33;;;;;19.83;47.16;100752.16;110207;1248;22325;-75
2023/04/02 07:48:52;;;;;;;;;7.00;7.00;;;;;19.61;44.87;100756.79;110168;1248;20671;-75
2023/04/02 07:51:19;;;;;;;;;14.00;13.50;;;;;19.33;42.29;100760.91;110164;1264;19333;-75
2023/04/02 07:53:48;;;;;;;;;18.00;13.00;;;;;19.14;40.80;100756.80;110150;1264;22303;-79
2023/04/02 07:56:16;;;;;;;;;14.00;14.00;;;;;18.99;40.09;100763.71;110139;1256;18716;-78
2023/04/02 07:58:44;;;;;;;;;14.00;12.00;;;;;18.89;39.36;100763.48;110151;1264;19316;-81
2023/04/02 08:01:11;;;;;;;;;17.00;15.00;;;;;18.82;39.21;100770.04;110146;1250;22646;-78
2023/04/02 08:03:38;;;;;;;;;17.00;14.00;;;;;18.67;38.99;100768.21;110214;1248;19967;-77
2023/04/02 08:06:06;;;;;;;;;13.33;10.33;;;;;18.78;39.79;100775.52;110208;1264;22203;-76
2023/04/02 08:08:33;;;;;;;;;12.00;12.00;;;;;19.02;39.75;100777.92;110177;1248;19930;-77
2023/04/02 08:11:01;;;;;;;;;17.00;12.00;;;;;19.19;39.83;100781.17;110189;1264;18834;-75
2023/04/02 08:13:28;;;;;;;;;10.00;10.00;;;;;19.31;39.88;100785.40;110152;1264;19347;-75
2023/04/02 08:15:55;;;;;;;;;10.33;9.00;;;;;19.40;40.15;100788.45;110173;1264;18567;-76
2023/04/02 08:18:23;;;;;;;;;7.00;7.00;;;;;19.47;40.21;100791.63;110179;1264;20975;-77
2023/04/02 08:20:51;;;;;;;;;10.00;9.00;;;;;19.51;40.13;100794.87;110187;1263;20671;-77
2023/04/02 08:23:18;;;;;;;;;12.00;10.00;;;;;19.55;40.24;100799.73;110210;1257;18390;-76
2023/04/02 08:25:46;;;;;;;;;9.00;7.00;;;;;19.56;40.55;100801.39;110179;1247;23065;-77
2023/04/02 08:28:13;;;;;;;;;10.00;9.00;;;;;19.58;40.92;100800.86;110129;1263;167047;-77
2023/04/02 08:30:40;;;;;;;;;6.00;6.00;;;;;19.58;40.97;100807.68;110254;1257;18462;-77
2023/04/02 08:33:08;;;;;;;;;6.00;6.00;;;;;19.59;41.41;100808.13;110205;1247;20714;-77
2023/04/02 08:35:35;;;;;;;;;4.00;4.00;;;;;19.60;41.61;100809.55;110269;1247;22699;-76
2023/04/02 08:38:02;;;;;;;;;4.00;4.00;;;;;19.61;41.83;100814.27;110319;1263;18510;-77
2023/04/02 08:40:30;;;;;;;;;3.67;3.67;;;;;19.62;42.34;100815.98;110234;1263;18857;-76
2023/04/02 08:42:57;;;;;;;;;4.00;4.00;;;;;19.62;42.39;100819.59;110193;1248;19325;-77
2023/04/02 08:45:25;;;;;;;;;4.00;4.00;;;;;19.63;42.45;100828.20;110230;1263;18499;-77
2023/04/02 08:47:54;;;;;;;;;6.00;4.00;;;;;19.64;42.71;100825.79;110212;1247;19998;-78
2023/04/02 08:50:21;;;;;;;;;3.00;3.00;;;;;19.64;42.95;100832.48;110212;1263;19201;-78
2023/04/02 08:52:48;;;;;;;;;3.33;3.33;;;;;19.64;42.94;100829.17;110218;1263;18362;-76
2023/04/02 08:55:15;;;;;;;;;3.00;3.00;;;;;19.65;43.20;100830.95;110183;1263;18640;-76
2023/04/02 08:57:43;;;;;;;;;3.00;3.00;;;;;19.66;43.26;100832.61;110157;1264;21739;-76
2023/04/02 09:00:11;;;;;;;;;3.00;3.00;;;;;19.65;43.50;100830.85;110185;1250;22795;-77
2023/04/02 09:02:38;;;;;;;;;4.00;4.00;;;;;19.65;43.55;100831.94;110248;1248;20685;-76
2023/04/02 09:05:05;;;;;;;;;3.00;3.00;;;;;19.66;43.69;100834.79;110202;1256;19314;-76
2023/04/02 09:07:33;;;;;;;;;3.00;3.00;;;;;19.67;43.85;100839.58;110176;1263;18584;-77
2023/04/02 09:10:00;;;;;;;;;4.00;3.00;;;;;19.67;44.02;100841.71;110245;1247;20015;-77
2023/04/02 09:12:27;;;;;;;;;3.00;3.00;;;;;19.67;44.08;100845.65;110234;1247;20762;-77
2023/04/02 09:14:55;;;;;;;;;3.00;3.00;;;;;19.68;44.13;100850.30;110209;1247;19635;-76
2023/04/02 09:17:22;;;;;;;;;3.00;3.00;;;;;19.69;44.22;100852.06;110233;1248;19861;-76
2023/04/02 09:19:50;;;;;;;;;3.00;3.00;;;;;19.68;44.23;100854.23;110236;1263;20633;-76
2023/04/02 09:22:17;;;;;;;;;1.00;1.00;;;;;19.69;44.58;100856.00;110219;1264;18408;-76
2023/04/02 09:24:44;;;;;;;;;1.00;1.00;;;;;19.69;44.40;100863.94;110239;1263;18750;-76
2023/04/02 09:27:11;;;;;;;;;3.00;3.00;;;;;19.69;44.53;100864.85;110137;1257;19348;-77
2023/04/02 09:29:39;;;;;;;;;3.50;3.00;;;;;19.70;44.36;100869.10;110237;1248;20477;-76
2023/04/02 09:32:06;;;;;;;;;3.50;3.00;;;;;19.70;44.56;100871.52;110243;1263;18685;-77
2023/04/02 09:34:33;;;;;;;;;1.00;1.00;;;;;19.71;44.73;100877.93;110202;1263;20773;-76
2023/04/02 09:37:01;;;;;;;;;1.00;1.00;;;;;19.69;44.67;100876.61;110201;1256;19474;-76
2023/04/02 09:39:28;;;;;;;;;3.00;2.33;;;;;19.70;44.68;100882.36;110161;1247;20109;-76
2023/04/02 09:41:55;;;;;;;;;1.00;1.00;;;;;19.70;44.90;100884.70;110183;1263;20705;-77
2023/04/02 09:44:23;;;;;;;;;1.00;1.00;;;;;19.71;45.01;100890.79;110207;1248;22171;-76
2023/04/02 09:46:51;;;;;;;;;3.00;1.00;;;;;19.70;44.91;100889.39;110221;1263;18612;-77
2023/04/02 09:49:19;;;;;;;;;1.00;1.00;;;;;19.71;44.95;100891.50;110226;1263;19362;-76
2023/04/02 09:51:46;;;;;;;;;1.00;1.00;;;;;19.71;44.90;100895.85;110218;1259;19488;-76
2023/04/02 09:54:13;;;;;;;;;3.00;3.00;;;;;19.71;45.10;100899.59;110181;1256;19114;-76
2023/04/02 09:56:41;;;;;;;;;1.00;1.00;;;;;19.71;45.18;100906.35;110178;1263;19303;-76
2023/04/02 09:59:08;;;;;;;;;1.00;1.00;;;;;19.71;45.10;100910.64;110201;1263;19860;-77
2023/04/02 10:01:36;;;;;;;;;1.00;1.00;;;;;19.72;45.11;100913.86;110230;1248;19974;-75
2023/04/02 10:04:03;;;;;;;;;1.00;1.00;;;;;19.72;45.22;100918.55;110195;1257;19229;-77
2023/04/02 10:06:30;;;;;;;;;1.00;1.00;;;;;19.71;45.23;100919.20;110248;1263;18505;-77
2023/04/02 10:08:58;;;;;;;;;2.00;2.00;;;;;19.71;45.28;100921.71;110222;1247;18770;-77
2023/04/02 10:11:25;;;;;;;;;1.00;1.00;;;;;19.72;45.15;100925.32;110217;1263;22411;-75
2023/04/02 10:13:52;;;;;;;;;1.00;1.00;;;;;19.72;45.38;100928.89;110240;1263;18435;-75
2023/04/02 10:16:20;;;;;;;;;1.00;1.00;;;;;19.71;45.38;100931.16;110215;1257;19933;-75
2023/04/02 10:18:47;;;;;;;;;3.00;1.00;;;;;19.72;45.53;100933.64;110213;1263;19352;-75
2023/04/02 10:21:14;;;;;;;;;2.00;2.00;;;;;19.73;45.53;100943.13;110229;1247;18404;-75
2023/04/02 10:23:42;;;;;;;;;1.00;1.00;;;;;19.73;45.42;100940.25;110231;1263;19998;-75
2023/04/02 10:26:09;;;;;;;;;1.00;1.00;;;;;19.72;45.67;100945.92;110208;1263;19349;-75
2023/04/02 10:28:37;;;;;;;;;1.00;1.00;;;;;19.73;45.59;100949.31;110218;1263;19569;-75
2023/04/02 10:31:04;;;;;;;;;1.00;1.00;;;;;19.72;45.59;100950.34;110169;1263;21387;-75
2023/04/02 10:33:32;;;;;;;;;1.00;1.00;;;;;19.72;45.71;100959.55;110205;1263;20613;-78
2023/04/02 10:36:00;;;;;;;;;1.00;1.00;;;;;19.73;45.82;100954.38;110188;1263;20018;-79
2023/04/02 10:38:27;;;;;;;;;3.00;3.00;;;;;19.73;45.73;100961.09;110205;1248;21704;-78
2023/04/02 10:40:54;;;;;;;;;1.00;1.00;;;;;19.73;45.71;100964.83;110228;1263;19285;-77
2023/04/02 10:43:22;;;;;;;;;1.00;1.00;;;;;19.73;45.85;100965.05;110213;1263;18347;-78
2023/04/02 10:45:49;;;;;;;;;1.00;1.00;;;;;19.74;45.82;100969.72;110224;1264;20337;-77
2023/04/02 10:48:17;;;;;;;;;3.00;1.67;;;;;19.73;45.64;100978.08;110265;1248;19344;-77
2023/04/02 10:50:44;;;;;;;;;1.00;1.00;;;;;19.74;45.62;100975.87;110258;1248;20839;-75
2023/04/02 10:53:11;;;;;;;;;1.00;1.00;;;;;19.73;45.83;100977.03;110236;1263;18640;-75
2023/04/02 10:55:41;;;;;;;;;3.00;1.00;;;;;19.73;45.73;100982.77;110232;1263;19374;-75
2023/04/02 10:58:09;;;;;;;;;1.00;1.00;;;;;19.73;45.87;100983.70;110261;1257;18545;-75
2023/04/02 11:00:36;;;;;;;;;1.00;1.00;;;;;19.74;45.87;100986.89;110240;1248;18671;-75
2023/04/02 11:03:04;;;;;;;;;4.00;4.00;;;;;19.74;45.79;100991.79;110245;1257;21546;-75
2023/04/02 11:05:34;;;;;;;;;2.00;2.00;;;;;19.74;45.90;100991.95;110256;1263;20044;-75
2023/04/02 11:08:02;;;;;;;;;3.00;3.00;;;;;19.74;45.84;100998.34;110229;1263;20164;-75
2023/04/02 11:10:29;;;;;;;;;1.00;1.00;;;;;19.74;45.93;101000.33;110234;1260;20702;-75
2023/04/02 11:12:57;;;;;;;;;1.00;1.00;;;;;19.74;46.04;101004.09;110228;1263;19727;-77
2023/04/02 11:15:24;;;;;;;;;1.00;1.00;;;;;19.73;45.98;101001.80;110242;1263;18629;-77
2023/04/02 11:17:51;;;;;;;;;1.00;1.00;;;;;19.73;45.96;101000.36;110198;1257;19219;-79